Portada
METAR-TAF:

METAR-TAF

Aeropuertos :

Formosa, Argentina

Aeropuerto Internacional de Formosa

latitud: 26-12S, longitud: 058-14W, altitud: 59 m

Observación

El informe se hizo hace 1 hora y 1 minutos, a las 14:00 UTC
Viento 15 kt del noreste
Temperatura 25°C
Humedad 44%
Presión 1018 hPa
Visibilidad 10 km o más

METAR: SARF 281400Z 05015KT 9999 NSC 25/12 Q1018

Hora: 12:01 (15:01 UTC)

Pronóstico

El informe se hizo hace 4 horas y 1 minutos, a las 11:00 UTC
Pronóstico válido del 28 a las 12 UTC al 29 a las 12 UTC
Viento 10 kt del noreste
Visibilidad 10 km o más
sin nubes por debajo de 1500 m y sin presencia de cumulonimbus.

TAF: SARF 281100Z 2812/2912 05010KT CAVOK TX32/2818Z TN17/2909Z

Observaciones y pronósticos meteorológicos de más de 4000 aeropuertos (mensajes METAR y TAF).

Los puntos amarillos y rojos representan las estaciones disponibles.

Ponga el ratón en el punto deseado para ver el nombre de la estación.

Haga clic para ver las observaciones y los pronósticos meteorológicos.

Para cambiar el mapa : haga clic en los botones verdes con una cruz de color negro para hacer un zoom, en el botón verde con un guión para alejar o en las flechas verdes para mapas adyacentes.


METAR-TAF: